sensor_id;sensor_type;location;lat;lon;timestamp;pressure;altitude;pressure_sealevel;temperature;humidity
5954;BME280;3002;42.642;24.812;2022-09-27T00:01:59;95602.72;;;21.15;100.00
5954;BME280;3002;42.642;24.812;2022-09-27T00:04:25;95550.53;;;20.72;100.00
5954;BME280;3002;42.642;24.812;2022-09-27T00:06:51;95605.06;;;21.13;100.00
5954;BME280;3002;42.642;24.812;2022-09-27T00:09:17;95598.44;;;21.14;100.00
5954;BME280;3002;42.642;24.812;2022-09-27T00:11:43;95563.91;;;20.84;100.00
5954;BME280;3002;42.642;24.812;2022-09-27T00:14:10;95592.91;;;21.07;100.00
5954;BME280;3002;42.642;24.812;2022-09-27T00:16:38;95587.03;;;21.05;100.00
5954;BME280;3002;42.642;24.812;2022-09-27T00:19:16;95581.25;;;21.10;100.00
5954;BME280;3002;42.642;24.812;2022-09-27T00:21:43;95599.19;;;20.70;100.00
5954;BME280;3002;42.642;24.812;2022-09-27T00:24:13;95602.44;;;20.87;100.00
5954;BME280;3002;42.642;24.812;2022-09-27T00:26:39;95612.44;;;20.42;100.00
5954;BME280;3002;42.642;24.812;2022-09-27T00:29:05;95619.75;;;20.34;100.00
5954;BME280;3002;42.642;24.812;2022-09-27T00:31:31;95595.53;;;20.25;100.00
5954;BME280;3002;42.642;24.812;2022-09-27T00:34:01;95607.50;;;20.51;100.00
5954;BME280;3002;42.642;24.812;2022-09-27T00:36:28;95597.81;;;20.53;100.00
5954;BME280;3002;42.642;24.812;2022-09-27T00:38:54;95587.31;;;20.52;100.00
5954;BME280;3002;42.642;24.812;2022-09-27T00:41:25;95586.03;;;20.79;100.00
5954;BME280;3002;42.642;24.812;2022-09-27T00:43:54;95596.59;;;20.84;100.00
5954;BME280;3002;42.642;24.812;2022-09-27T00:49:21;95588.63;;;20.69;100.00
5954;BME280;3002;42.642;24.812;2022-09-27T00:51:54;95573.50;;;20.04;100.00
5954;BME280;3002;42.642;24.812;2022-09-27T00:54:21;95581.59;;;20.30;100.00
5954;BME280;3002;42.642;24.812;2022-09-27T00:56:49;95568.97;;;20.15;100.00
5954;BME280;3002;42.642;24.812;2022-09-27T00:59:24;95552.81;;;20.33;100.00
5954;BME280;3002;42.642;24.812;2022-09-27T01:01:51;95568.81;;;20.35;100.00
5954;BME280;3002;42.642;24.812;2022-09-27T01:04:21;95550.75;;;20.53;100.00
5954;BME280;3002;42.642;24.812;2022-09-27T01:06:49;95566.44;;;20.63;100.00
5954;BME280;3002;42.642;24.812;2022-09-27T01:09:15;95556.81;;;20.43;100.00
5954;BME280;3002;42.642;24.812;2022-09-27T01:37:38;95527.84;;;20.61;100.00
5954;BME280;3002;42.642;24.812;2022-09-27T01:43:11;95520.78;;;20.53;100.00
5954;BME280;3002;42.642;24.812;2022-09-27T01:46:07;95518.28;;;20.41;100.00
5954;BME280;3002;42.642;24.812;2022-09-27T01:48:35;95515.53;;;20.37;100.00
5954;BME280;3002;42.642;24.812;2022-09-27T01:51:08;95507.16;;;20.53;100.00
5954;BME280;3002;42.642;24.812;2022-09-27T01:53:39;95534.41;;;20.53;100.00
5954;BME280;3002;42.642;24.812;2022-09-27T01:56:10;95536.41;;;20.60;100.00
5954;BME280;3002;42.642;24.812;2022-09-27T01:58:59;95530.25;;;20.32;100.00
5954;BME280;3002;42.642;24.812;2022-09-27T02:01:28;95503.72;;;20.22;100.00
5954;BME280;3002;42.642;24.812;2022-09-27T02:03:57;95501.66;;;20.12;100.00
5954;BME280;3002;42.642;24.812;2022-09-27T02:06:34;95529.94;;;20.75;100.00
5954;BME280;3002;42.642;24.812;2022-09-27T02:09:15;95533.81;;;20.74;100.00
5954;BME280;3002;42.642;24.812;2022-09-27T02:11:47;95538.19;;;20.85;100.00
5954;BME280;3002;42.642;24.812;2022-09-27T02:14:34;95538.69;;;20.95;100.00
5954;BME280;3002;42.642;24.812;2022-09-27T02:17:43;95523.06;;;20.47;100.00
5954;BME280;3002;42.642;24.812;2022-09-27T02:20:18;95495.34;;;20.42;100.00
5954;BME280;3002;42.642;24.812;2022-09-27T02:25:33;95511.94;;;20.29;100.00
5954;BME280;3002;42.642;24.812;2022-09-27T02:28:24;95514.78;;;20.40;100.00
5954;BME280;3002;42.642;24.812;2022-09-27T02:30:53;95512.84;;;20.41;100.00
5954;BME280;3002;42.642;24.812;2022-09-27T02:33:22;95516.50;;;20.52;100.00
5954;BME280;3002;42.642;24.812;2022-09-27T02:35:49;95525.97;;;20.31;100.00
5954;BME280;3002;42.642;24.812;2022-09-27T02:38:14;95506.50;;;20.29;100.00
5954;BME280;3002;42.642;24.812;2022-09-27T02:40:43;95527.91;;;20.68;100.00
5954;BME280;3002;42.642;24.812;2022-09-27T02:43:09;95517.41;;;20.29;100.00
5954;BME280;3002;42.642;24.812;2022-09-27T02:56:49;95499.00;;;20.53;100.00
5954;BME280;3002;42.642;24.812;2022-09-27T03:05:04;95474.72;;;20.41;100.00
5954;BME280;3002;42.642;24.812;2022-09-27T03:07:31;95468.47;;;19.99;100.00
5954;BME280;3002;42.642;24.812;2022-09-27T03:09:56;95480.28;;;20.14;100.00
5954;BME280;3002;42.642;24.812;2022-09-27T03:12:22;95479.75;;;20.01;100.00
5954;BME280;3002;42.642;24.812;2022-09-27T03:14:57;95482.66;;;20.19;100.00
5954;BME280;3002;42.642;24.812;2022-09-27T03:17:24;95487.19;;;20.04;100.00
5954;BME280;3002;42.642;24.812;2022-09-27T03:19:50;95491.75;;;19.97;100.00
5954;BME280;3002;42.642;24.812;2022-09-27T03:22:15;95469.75;;;20.09;100.00
5954;BME280;3002;42.642;24.812;2022-09-27T03:24:41;95489.16;;;20.08;100.00
5954;BME280;3002;42.642;24.812;2022-09-27T03:27:07;95466.56;;;20.03;100.00
5954;BME280;3002;42.642;24.812;2022-09-27T03:29:32;95478.78;;;20.20;100.00
5954;BME280;3002;42.642;24.812;2022-09-27T03:31:58;95470.66;;;19.87;100.00
5954;BME280;3002;42.642;24.812;2022-09-27T03:34:23;95470.06;;;20.04;100.00
5954;BME280;3002;42.642;24.812;2022-09-27T03:36:49;95457.56;;;20.37;100.00
5954;BME280;3002;42.642;24.812;2022-09-27T03:39:15;95468.59;;;20.14;100.00
5954;BME280;3002;42.642;24.812;2022-09-27T03:41:40;95456.78;;;19.99;100.00
5954;BME280;3002;42.642;24.812;2022-09-27T03:44:06;95460.69;;;19.98;100.00
5954;BME280;3002;42.642;24.812;2022-09-27T03:46:32;95420.00;;;19.75;100.00
5954;BME280;3002;42.642;24.812;2022-09-27T03:48:58;95448.31;;;20.04;100.00
5954;BME280;3002;42.642;24.812;2022-09-27T03:51:23;95438.97;;;20.05;100.00
5954;BME280;3002;42.642;24.812;2022-09-27T03:53:49;95453.16;;;20.25;100.00
5954;BME280;3002;42.642;24.812;2022-09-27T03:56:14;95443.16;;;20.36;100.00
5954;BME280;3002;42.642;24.812;2022-09-27T03:58:40;95441.88;;;20.23;100.00
5954;BME280;3002;42.642;24.812;2022-09-27T04:01:05;95407.38;;;19.97;100.00
5954;BME280;3002;42.642;24.812;2022-09-27T04:03:31;95418.66;;;19.95;100.00
5954;BME280;3002;42.642;24.812;2022-09-27T04:05:56;95423.53;;;20.16;100.00
5954;BME280;3002;42.642;24.812;2022-09-27T04:08:24;95430.16;;;20.15;100.00
5954;BME280;3002;42.642;24.812;2022-09-27T04:10:50;95447.44;;;20.34;100.00
5954;BME280;3002;42.642;24.812;2022-09-27T04:13:15;95435.78;;;20.37;100.00
5954;BME280;3002;42.642;24.812;2022-09-27T04:15:42;95443.31;;;20.13;100.00
5954;BME280;3002;42.642;24.812;2022-09-27T04:18:07;95442.47;;;20.05;100.00
5954;BME280;3002;42.642;24.812;2022-09-27T04:20:34;95448.81;;;20.17;100.00
5954;BME280;3002;42.642;24.812;2022-09-27T04:23:00;95426.28;;;20.20;100.00
5954;BME280;3002;42.642;24.812;2022-09-27T04:25:25;95427.34;;;20.49;100.00
5954;BME280;3002;42.642;24.812;2022-09-27T04:27:51;95432.41;;;20.50;100.00
5954;BME280;3002;42.642;24.812;2022-09-27T04:30:19;95427.56;;;20.33;100.00
5954;BME280;3002;42.642;24.812;2022-09-27T04:32:44;95441.38;;;20.51;100.00
5954;BME280;3002;42.642;24.812;2022-09-27T04:35:11;95454.69;;;20.60;100.00
5954;BME280;3002;42.642;24.812;2022-09-27T04:37:55;95442.81;;;20.00;100.00
5954;BME280;3002;42.642;24.812;2022-09-27T04:40:21;95446.94;;;20.24;100.00
5954;BME280;3002;42.642;24.812;2022-09-27T04:42:48;95432.13;;;20.59;100.00
5954;BME280;3002;42.642;24.812;2022-09-27T04:45:13;95420.84;;;20.61;100.00
5954;BME280;3002;42.642;24.812;2022-09-27T04:47:46;95408.78;;;20.62;100.00
5954;BME280;3002;42.642;24.812;2022-09-27T04:50:13;95429.06;;;20.64;100.00
5954;BME280;3002;42.642;24.812;2022-09-27T04:52:38;95428.72;;;20.69;100.00
5954;BME280;3002;42.642;24.812;2022-09-27T04:55:05;95398.31;;;20.67;100.00
5954;BME280;3002;42.642;24.812;2022-09-27T04:57:31;95389.28;;;20.56;100.00
5954;BME280;3002;42.642;24.812;2022-09-27T04:59:56;95391.72;;;20.68;100.00
5954;BME280;3002;42.642;24.812;2022-09-27T05:02:25;95427.22;;;20.79;100.00
5954;BME280;3002;42.642;24.812;2022-09-27T05:04:52;95425.72;;;20.89;100.00
5954;BME280;3002;42.642;24.812;2022-09-27T05:07:18;95418.00;;;20.98;100.00
5954;BME280;3002;42.642;24.812;2022-09-27T05:09:44;95386.44;;;20.97;100.00
5954;BME280;3002;42.642;24.812;2022-09-27T05:12:09;95409.94;;;21.12;100.00
5954;BME280;3002;42.642;24.812;2022-09-27T05:14:35;95388.13;;;21.12;100.00
5954;BME280;3002;42.642;24.812;2022-09-27T05:17:01;95422.59;;;21.49;100.00
5954;BME280;3002;42.642;24.812;2022-09-27T05:19:27;95390.34;;;20.96;100.00
5954;BME280;3002;42.642;24.812;2022-09-27T05:21:52;95386.88;;;21.02;100.00
5954;BME280;3002;42.642;24.812;2022-09-27T05:24:18;95420.09;;;21.19;100.00
5954;BME280;3002;42.642;24.812;2022-09-27T05:26:44;95425.25;;;21.31;100.00
5954;BME280;3002;42.642;24.812;2022-09-27T05:29:11;95428.69;;;21.28;100.00
5954;BME280;3002;42.642;24.812;2022-09-27T05:31:36;95444.28;;;21.27;100.00
5954;BME280;3002;42.642;24.812;2022-09-27T05:34:01;95432.72;;;21.45;100.00
5954;BME280;3002;42.642;24.812;2022-09-27T05:36:27;95436.09;;;21.24;100.00
5954;BME280;3002;42.642;24.812;2022-09-27T05:38:52;95406.16;;;21.31;100.00
5954;BME280;3002;42.642;24.812;2022-09-27T05:41:18;95399.09;;;21.26;100.00
5954;BME280;3002;42.642;24.812;2022-09-27T05:43:44;95395.53;;;21.22;100.00
5954;BME280;3002;42.642;24.812;2022-09-27T05:46:10;95394.50;;;21.37;100.00
5954;BME280;3002;42.642;24.812;2022-09-27T05:48:36;95387.78;;;21.28;100.00
5954;BME280;3002;42.642;24.812;2022-09-27T05:51:02;95404.75;;;21.69;100.00
5954;BME280;3002;42.642;24.812;2022-09-27T05:53:28;95396.66;;;21.90;100.00
5954;BME280;3002;42.642;24.812;2022-09-27T05:55:53;95386.94;;;22.07;100.00
5954;BME280;3002;42.642;24.812;2022-09-27T05:58:28;95431.13;;;22.56;100.00
5954;BME280;3002;42.642;24.812;2022-09-27T06:00:54;95434.97;;;22.23;99.99
5954;BME280;3002;42.642;24.812;2022-09-27T06:03:19;95435.75;;;22.23;100.00
5954;BME280;3002;42.642;24.812;2022-09-27T06:05:45;95418.13;;;22.06;100.00
5954;BME280;3002;42.642;24.812;2022-09-27T06:08:12;95422.78;;;22.06;100.00
5954;BME280;3002;42.642;24.812;2022-09-27T06:10:39;95408.38;;;22.09;100.00
5954;BME280;3002;42.642;24.812;2022-09-27T06:13:12;95429.91;;;22.46;98.90
5954;BME280;3002;42.642;24.812;2022-09-27T06:15:41;95400.63;;;22.14;100.00
5954;BME280;3002;42.642;24.812;2022-09-27T06:18:09;95401.03;;;22.34;100.00
5954;BME280;3002;42.642;24.812;2022-09-27T06:20:36;95414.31;;;22.89;100.00
5954;BME280;3002;42.642;24.812;2022-09-27T06:23:06;95406.50;;;23.06;93.12
5954;BME280;3002;42.642;24.812;2022-09-27T06:25:34;95365.88;;;22.86;94.78
5954;BME280;3002;42.642;24.812;2022-09-27T06:27:59;95377.63;;;22.98;98.35
5954;BME280;3002;42.642;24.812;2022-09-27T06:30:25;95360.06;;;22.56;100.00
5954;BME280;3002;42.642;24.812;2022-09-27T06:32:59;95381.13;;;22.66;100.00
5954;BME280;3002;42.642;24.812;2022-09-27T06:35:26;95390.91;;;22.53;97.25
5954;BME280;3002;42.642;24.812;2022-09-27T06:37:52;95387.34;;;22.24;100.00
5954;BME280;3002;42.642;24.812;2022-09-27T06:40:18;95397.53;;;22.59;91.75
5954;BME280;3002;42.642;24.812;2022-09-27T06:42:44;95392.41;;;23.18;88.84
5954;BME280;3002;42.642;24.812;2022-09-27T06:45:10;95411.09;;;23.52;84.34
5954;BME280;3002;42.642;24.812;2022-09-27T06:47:36;95395.94;;;22.36;92.24
5954;BME280;3002;42.642;24.812;2022-09-27T06:50:02;95404.56;;;22.81;95.45
5954;BME280;3002;42.642;24.812;2022-09-27T06:52:34;95429.91;;;23.28;87.26
5954;BME280;3002;42.642;24.812;2022-09-27T06:55:00;95421.72;;;23.14;90.56
5954;BME280;3002;42.642;24.812;2022-09-27T06:57:26;95401.03;;;22.95;91.85
5954;BME280;3002;42.642;24.812;2022-09-27T07:00:11;95421.34;;;23.15;94.05
5954;BME280;3002;42.642;24.812;2022-09-27T07:02:54;95441.25;;;23.12;95.54
5954;BME280;3002;42.642;24.812;2022-09-27T07:05:26;95451.03;;;23.06;97.65
5954;BME280;3002;42.642;24.812;2022-09-27T07:07:56;95435.00;;;22.73;100.00
5954;BME280;3002;42.642;24.812;2022-09-27T07:10:28;95445.16;;;23.11;98.56
5954;BME280;3002;42.642;24.812;2022-09-27T07:12:55;95399.88;;;22.64;100.00
5954;BME280;3002;42.642;24.812;2022-09-27T07:15:21;95445.94;;;22.73;100.00
5954;BME280;3002;42.642;24.812;2022-09-27T07:17:48;95437.34;;;22.56;99.40
5954;BME280;3002;42.642;24.812;2022-09-27T07:20:19;95431.69;;;21.81;100.00
5954;BME280;3002;42.642;24.812;2022-09-27T07:22:45;95417.38;;;22.09;100.00
5954;BME280;3002;42.642;24.812;2022-09-27T07:25:10;95410.69;;;22.00;100.00
5954;BME280;3002;42.642;24.812;2022-09-27T07:27:36;95405.69;;;22.30;100.00
5954;BME280;3002;42.642;24.812;2022-09-27T07:30:03;95406.09;;;22.61;98.83
5954;BME280;3002;42.642;24.812;2022-09-27T07:32:31;95412.38;;;22.65;99.58
5954;BME280;3002;42.642;24.812;2022-09-27T07:34:57;95414.28;;;23.25;92.13
5954;BME280;3002;42.642;24.812;2022-09-27T07:37:23;95402.56;;;23.24;92.58
5954;BME280;3002;42.642;24.812;2022-09-27T07:39:49;95418.63;;;23.01;96.09
5954;BME280;3002;42.642;24.812;2022-09-27T07:42:43;95411.56;;;22.71;100.00
5954;BME280;3002;42.642;24.812;2022-09-27T07:45:37;95404.94;;;23.08;98.53
5954;BME280;3002;42.642;24.812;2022-09-27T07:48:40;95422.69;;;23.84;91.98
5954;BME280;3002;42.642;24.812;2022-09-27T07:51:06;95406.75;;;23.65;92.96
5954;BME280;3002;42.642;24.812;2022-09-27T07:53:34;95432.63;;;23.35;100.00
5954;BME280;3002;42.642;24.812;2022-09-27T07:56:00;95453.78;;;22.95;100.00
5954;BME280;3002;42.642;24.812;2022-09-27T07:58:28;95431.88;;;22.85;100.00
5954;BME280;3002;42.642;24.812;2022-09-27T08:00:58;95454.53;;;22.64;100.00
5954;BME280;3002;42.642;24.812;2022-09-27T08:03:23;95422.91;;;22.59;100.00
5954;BME280;3002;42.642;24.812;2022-09-27T08:05:49;95422.13;;;22.73;100.00
5954;BME280;3002;42.642;24.812;2022-09-27T08:08:15;95458.06;;;22.96;100.00
5954;BME280;3002;42.642;24.812;2022-09-27T08:10:41;95428.78;;;22.61;100.00
5954;BME280;3002;42.642;24.812;2022-09-27T08:13:09;95427.97;;;22.64;100.00
5954;BME280;3002;42.642;24.812;2022-09-27T08:15:36;95432.28;;;22.90;100.00
5954;BME280;3002;42.642;24.812;2022-09-27T08:18:06;95398.28;;;23.13;100.00
5954;BME280;3002;42.642;24.812;2022-09-27T08:20:33;95414.19;;;23.57;100.00
5954;BME280;3002;42.642;24.812;2022-09-27T08:22:59;95420.78;;;23.74;97.98
5954;BME280;3002;42.642;24.812;2022-09-27T08:25:27;95389.56;;;23.57;98.81
5954;BME280;3002;42.642;24.812;2022-09-27T08:27:59;95413.25;;;23.99;98.18
5954;BME280;3002;42.642;24.812;2022-09-27T08:30:28;95407.00;;;23.95;96.43
5954;BME280;3002;42.642;24.812;2022-09-27T08:32:59;95410.97;;;24.53;87.30
5954;BME280;3002;42.642;24.812;2022-09-27T08:35:28;95394.22;;;24.89;83.84
5954;BME280;3002;42.642;24.812;2022-09-27T08:37:58;95405.66;;;25.25;83.81
5954;BME280;3002;42.642;24.812;2022-09-27T08:40:35;95366.66;;;24.62;85.29
5954;BME280;3002;42.642;24.812;2022-09-27T08:49:04;95416.41;;;24.57;86.62
5954;BME280;3002;42.642;24.812;2022-09-27T08:51:34;95402.25;;;24.66;85.49
5954;BME280;3002;42.642;24.812;2022-09-27T08:54:27;95383.69;;;23.69;90.50
5954;BME280;3002;42.642;24.812;2022-09-27T08:57:00;95386.59;;;24.63;87.10
5954;BME280;3002;42.642;24.812;2022-09-27T08:59:33;95372.09;;;25.11;81.13
5954;BME280;3002;42.642;24.812;2022-09-27T09:02:01;95364.59;;;25.83;76.60
5954;BME280;3002;42.642;24.812;2022-09-27T09:04:33;95394.78;;;26.67;74.70
5954;BME280;3002;42.642;24.812;2022-09-27T09:07:14;95389.69;;;27.56;69.54
5954;BME280;3002;42.642;24.812;2022-09-27T09:15:15;95362.94;;;27.77;66.30
5954;BME280;3002;42.642;24.812;2022-09-27T09:26:35;95349.38;;;31.02;56.33
5954;BME280;3002;42.642;24.812;2022-09-27T09:29:33;95335.31;;;26.54;71.69
5954;BME280;3002;42.642;24.812;2022-09-27T09:37:23;95356.47;;;28.56;63.11
5954;BME280;3002;42.642;24.812;2022-09-27T09:46:10;95314.19;;;26.94;69.82
5954;BME280;3002;42.642;24.812;2022-09-27T09:49:29;95316.41;;;27.42;67.39
5954;BME280;3002;42.642;24.812;2022-09-27T09:51:57;95312.78;;;27.45;67.64
5954;BME280;3002;42.642;24.812;2022-09-27T09:54:44;95321.56;;;27.60;67.18
5954;BME280;3002;42.642;24.812;2022-09-27T09:57:15;95311.66;;;27.99;66.35
5954;BME280;3002;42.642;24.812;2022-09-27T10:00:05;95313.25;;;28.98;64.30
5954;BME280;3002;42.642;24.812;2022-09-27T10:02:39;95323.19;;;29.37;62.99
5954;BME280;3002;42.642;24.812;2022-09-27T10:05:11;95294.25;;;29.71;60.88
5954;BME280;3002;42.642;24.812;2022-09-27T10:07:38;95305.88;;;31.24;56.06
5954;BME280;3002;42.642;24.812;2022-09-27T10:10:05;95321.97;;;32.13;52.99
5954;BME280;3002;42.642;24.812;2022-09-27T10:12:34;95321.34;;;31.56;54.93
5954;BME280;3002;42.642;24.812;2022-09-27T10:15:22;95296.53;;;32.46;53.01
5954;BME280;3002;42.642;24.812;2022-09-27T10:17:56;95269.59;;;30.27;57.40
5954;BME280;3002;42.642;24.812;2022-09-27T10:20:38;95277.44;;;30.03;58.46
5954;BME280;3002;42.642;24.812;2022-09-27T10:23:15;95293.50;;;31.60;54.51
5954;BME280;3002;42.642;24.812;2022-09-27T10:25:55;95292.06;;;32.39;51.80
5954;BME280;3002;42.642;24.812;2022-09-27T10:31:03;95260.44;;;34.41;45.42
5954;BME280;3002;42.642;24.812;2022-09-27T10:36:22;95295.63;;;35.25;44.24
5954;BME280;3002;42.642;24.812;2022-09-27T10:39:21;95315.84;;;33.87;44.88
5954;BME280;3002;42.642;24.812;2022-09-27T10:41:47;95321.09;;;34.70;43.43
5954;BME280;3002;42.642;24.812;2022-09-27T10:44:30;95288.03;;;32.40;46.12
5954;BME280;3002;42.642;24.812;2022-09-27T10:47:11;95301.16;;;34.29;42.29
5954;BME280;3002;42.642;24.812;2022-09-27T10:49:39;95294.97;;;36.68;36.09
5954;BME280;3002;42.642;24.812;2022-09-27T10:52:25;95293.59;;;31.25;44.48
5954;BME280;3002;42.642;24.812;2022-09-27T10:55:05;95288.09;;;32.59;41.78
5954;BME280;3002;42.642;24.812;2022-09-27T10:57:33;95279.09;;;33.74;41.32
5954;BME280;3002;42.642;24.812;2022-09-27T11:00:06;95282.63;;;35.75;36.18
5954;BME280;3002;42.642;24.812;2022-09-27T11:02:36;95280.53;;;35.31;36.17
5954;BME280;3002;42.642;24.812;2022-09-27T11:05:11;95265.09;;;34.68;37.76
5954;BME280;3002;42.642;24.812;2022-09-27T11:07:53;95260.31;;;37.21;33.09
5954;BME280;3002;42.642;24.812;2022-09-27T11:10:39;95257.47;;;36.55;33.70
5954;BME280;3002;42.642;24.812;2022-09-27T11:13:18;95252.63;;;35.70;34.24
5954;BME280;3002;42.642;24.812;2022-09-27T11:25:06;95241.84;;;34.95;36.53
5954;BME280;3002;42.642;24.812;2022-09-27T11:30:14;95246.06;;;35.29;37.29
5954;BME280;3002;42.642;24.812;2022-09-27T11:35:25;95241.34;;;32.85;40.21
5954;BME280;3002;42.642;24.812;2022-09-27T11:41:01;95228.06;;;32.34;41.59
5954;BME280;3002;42.642;24.812;2022-09-27T11:46:29;95214.19;;;29.80;46.53
5954;BME280;3002;42.642;24.812;2022-09-27T11:49:28;95221.94;;;30.10;45.97
5954;BME280;3002;42.642;24.812;2022-09-27T12:00:17;95220.88;;;32.05;42.36
5954;BME280;3002;42.642;24.812;2022-09-27T12:11:11;95207.41;;;35.22;36.99
5954;BME280;3002;42.642;24.812;2022-09-27T12:13:47;95202.84;;;35.98;34.39
5954;BME280;3002;42.642;24.812;2022-09-27T12:16:17;95188.19;;;34.22;36.53
5954;BME280;3002;42.642;24.812;2022-09-27T12:18:46;95200.16;;;32.37;39.76
5954;BME280;3002;42.642;24.812;2022-09-27T12:21:13;95154.69;;;32.44;39.58
5954;BME280;3002;42.642;24.812;2022-09-27T12:23:50;95193.47;;;35.22;36.06
5954;BME280;3002;42.642;24.812;2022-09-27T12:26:30;95209.56;;;37.55;31.92
5954;BME280;3002;42.642;24.812;2022-09-27T12:29:13;95214.78;;;35.99;33.15
5954;BME280;3002;42.642;24.812;2022-09-27T12:34:18;95196.59;;;33.80;36.24
5954;BME280;3002;42.642;24.812;2022-09-27T12:36:54;95192.47;;;34.95;34.87
5954;BME280;3002;42.642;24.812;2022-09-27T12:42:20;95193.53;;;36.22;31.77
5954;BME280;3002;42.642;24.812;2022-09-27T12:44:47;95187.69;;;37.01;31.40
5954;BME280;3002;42.642;24.812;2022-09-27T12:47:34;95184.78;;;37.16;32.42
5954;BME280;3002;42.642;24.812;2022-09-27T12:50:43;95170.50;;;37.97;30.01
5954;BME280;3002;42.642;24.812;2022-09-27T12:53:23;95141.34;;;36.28;33.04
5954;BME280;3002;42.642;24.812;2022-09-27T13:10:53;95150.13;;;33.71;36.32
5954;BME280;3002;42.642;24.812;2022-09-27T13:13:26;95132.78;;;32.28;40.38
5954;BME280;3002;42.642;24.812;2022-09-27T13:15:58;95119.06;;;33.73;36.48
5954;BME280;3002;42.642;24.812;2022-09-27T13:21:07;95114.16;;;31.29;40.00
5954;BME280;3002;42.642;24.812;2022-09-27T13:28:33;95107.28;;;33.12;38.82
5954;BME280;3002;42.642;24.812;2022-09-27T13:31:07;95123.03;;;30.93;42.35
5954;BME280;3002;42.642;24.812;2022-09-27T13:33:49;95144.16;;;30.08;44.28
5954;BME280;3002;42.642;24.812;2022-09-27T13:39:00;95115.38;;;32.36;41.33
5954;BME280;3002;42.642;24.812;2022-09-27T13:47:36;95117.19;;;32.30;40.84
5954;BME280;3002;42.642;24.812;2022-09-27T13:55:50;95100.47;;;29.43;47.59
5954;BME280;3002;42.642;24.812;2022-09-27T13:58:41;95108.91;;;30.47;46.21
5954;BME280;3002;42.642;24.812;2022-09-27T14:04:22;95130.09;;;30.28;46.73
5954;BME280;3002;42.642;24.812;2022-09-27T14:06:56;95144.16;;;30.08;49.39
5954;BME280;3002;42.642;24.812;2022-09-27T14:09:28;95116.03;;;29.88;47.96
5954;BME280;3002;42.642;24.812;2022-09-27T14:11:59;95125.91;;;29.51;47.30
5954;BME280;3002;42.642;24.812;2022-09-27T14:14:28;95095.41;;;29.42;47.86
5954;BME280;3002;42.642;24.812;2022-09-27T14:16:57;95126.50;;;28.91;49.26
5954;BME280;3002;42.642;24.812;2022-09-27T14:19:24;95119.28;;;29.10;49.14
5954;BME280;3002;42.642;24.812;2022-09-27T14:21:51;95105.59;;;28.77;49.62
5954;BME280;3002;42.642;24.812;2022-09-27T14:27:25;95145.84;;;30.06;49.55
5954;BME280;3002;42.642;24.812;2022-09-27T14:30:00;95119.97;;;29.52;48.30
5954;BME280;3002;42.642;24.812;2022-09-27T14:32:33;95106.81;;;28.64;50.90
5954;BME280;3002;42.642;24.812;2022-09-27T14:35:18;95102.31;;;28.83;52.08
5954;BME280;3002;42.642;24.812;2022-09-27T14:38:08;95110.41;;;29.02;52.99
5954;BME280;3002;42.642;24.812;2022-09-27T14:40:40;95114.63;;;29.32;52.93
5954;BME280;3002;42.642;24.812;2022-09-27T14:43:23;95112.00;;;29.29;53.75
5954;BME280;3002;42.642;24.812;2022-09-27T14:45:51;95097.06;;;28.59;53.79
5954;BME280;3002;42.642;24.812;2022-09-27T14:48:22;95108.22;;;28.56;53.71
5954;BME280;3002;42.642;24.812;2022-09-27T14:53:43;95093.31;;;29.08;51.51
5954;BME280;3002;42.642;24.812;2022-09-27T14:56:15;95112.84;;;29.00;53.55
5954;BME280;3002;42.642;24.812;2022-09-27T14:58:43;95135.63;;;28.75;50.62
5954;BME280;3002;42.642;24.812;2022-09-27T15:01:15;95110.38;;;28.90;51.56
5954;BME280;3002;42.642;24.812;2022-09-27T15:03:42;95103.56;;;29.07;53.12
5954;BME280;3002;42.642;24.812;2022-09-27T15:06:09;95116.38;;;29.26;54.24
5954;BME280;3002;42.642;24.812;2022-09-27T15:08:35;95118.06;;;29.24;55.00
5954;BME280;3002;42.642;24.812;2022-09-27T15:11:03;95146.97;;;29.45;55.77
5954;BME280;3002;42.642;24.812;2022-09-27T15:13:31;95123.47;;;29.40;56.38
5954;BME280;3002;42.642;24.812;2022-09-27T15:15:57;95125.03;;;29.16;57.75
5954;BME280;3002;42.642;24.812;2022-09-27T15:18:38;95150.06;;;29.09;60.14
5954;BME280;3002;42.642;24.812;2022-09-27T15:21:06;95131.53;;;29.22;58.26
5954;BME280;3002;42.642;24.812;2022-09-27T15:23:41;95112.53;;;29.11;58.16
5954;BME280;3002;42.642;24.812;2022-09-27T15:26:18;95124.59;;;29.55;56.87
5954;BME280;3002;42.642;24.812;2022-09-27T15:28:47;95140.28;;;29.46;56.64
5954;BME280;3002;42.642;24.812;2022-09-27T15:31:13;95122.91;;;29.20;57.09
5954;BME280;3002;42.642;24.812;2022-09-27T15:33:40;95134.72;;;29.08;56.88
5954;BME280;3002;42.642;24.812;2022-09-27T15:36:08;95151.94;;;28.70;59.52
5954;BME280;3002;42.642;24.812;2022-09-27T15:38:44;95138.69;;;28.94;56.19
5954;BME280;3002;42.642;24.812;2022-09-27T15:41:17;95156.34;;;27.04;61.41
5954;BME280;3002;42.642;24.812;2022-09-27T15:46:28;95150.81;;;26.25;66.65
5954;BME280;3002;42.642;24.812;2022-09-27T15:51:43;95130.50;;;26.42;67.49
5954;BME280;3002;42.642;24.812;2022-09-27T15:54:08;95126.72;;;26.32;67.87
5954;BME280;3002;42.642;24.812;2022-09-27T15:56:34;95116.84;;;26.58;67.96
5954;BME280;3002;42.642;24.812;2022-09-27T15:59:01;95149.22;;;26.87;66.34
5954;BME280;3002;42.642;24.812;2022-09-27T16:01:27;95148.91;;;26.65;67.89
5954;BME280;3002;42.642;24.812;2022-09-27T16:03:56;95124.06;;;26.29;68.30
5954;BME280;3002;42.642;24.812;2022-09-27T16:06:44;95101.00;;;26.23;68.95
5954;BME280;3002;42.642;24.812;2022-09-27T16:09:17;95113.97;;;26.22;70.59
5954;BME280;3002;42.642;24.812;2022-09-27T16:11:44;95131.03;;;26.33;73.10
5954;BME280;3002;42.642;24.812;2022-09-27T16:14:10;95142.44;;;26.32;73.30
5954;BME280;3002;42.642;24.812;2022-09-27T16:16:42;95139.03;;;26.04;74.13
5954;BME280;3002;42.642;24.812;2022-09-27T16:19:08;95118.66;;;25.78;75.88
5954;BME280;3002;42.642;24.812;2022-09-27T16:21:34;95135.78;;;25.62;75.61
5954;BME280;3002;42.642;24.812;2022-09-27T16:23:59;95104.59;;;25.26;77.84
5954;BME280;3002;42.642;24.812;2022-09-27T16:26:27;95116.28;;;25.30;76.62
5954;BME280;3002;42.642;24.812;2022-09-27T16:28:53;95121.59;;;25.41;75.13